JM-0007 weather

Puerto Seco Airstrip
Discovery Bay, Saint Ann, Jamaica

Public forecast

Using degrees Celsius for public forecast. Weather courtesy of forecast.io.

Closest aviation weather report (METAR) to Puerto Seco Airstrip

Closest report is Sangster International Airport, 29.6 nm (54.9 km) W. Retrieved 2020/06/04 05:00 UTC (1 hour ago):

MKJS 040500Z 23004KT 9999 FEW022 27/21 Q1013

Closest aviation forecast (TAF) to Puerto Seco Airstrip

Closest forecast is Sangster International Airport, 29.6 nm (54.9 km) W. Retrieved 2020/06/04 06:13 UTC (0 seconds ago):

TAF MKJS 040515Z 0406/0506 11005KT 9999 FEW022 BECMG 0413/0415 06020KT BECMG 0504/0506 11005KT